createdAt,value
2023-04-03T00:03:23.355Z,100505.44
2023-04-03T00:10:33.978Z,100507.94
2023-04-03T00:13:15.768Z,100500.97
2023-04-03T00:24:41.531Z,100491.47
2023-04-03T00:32:09.481Z,100503.72
2023-04-03T00:35:32.108Z,100501.97
2023-04-03T00:42:29.274Z,100494.09
2023-04-03T00:45:29.655Z,100494.97
2023-04-03T01:08:50.808Z,100492.38
2023-04-03T01:15:28.823Z,100495.06
2023-04-03T01:34:32.898Z,100482.06
2023-04-03T01:38:05.524Z,100501.28
2023-04-03T01:44:11.175Z,100489.03
2023-04-03T01:46:52.957Z,100484.69
2023-04-03T01:49:36.153Z,100482.97
2023-04-03T01:52:09.347Z,100485.59
2023-04-03T01:54:36.905Z,100485.56
2023-04-03T01:57:04.587Z,100490.78
2023-04-03T01:59:32.785Z,100475.06
2023-04-03T02:02:00.910Z,100483.84
2023-04-03T02:04:28.594Z,100482.97
2023-04-03T02:06:56.260Z,100489.06
2023-04-03T02:09:24.950Z,100482.97
2023-04-03T02:11:54.416Z,100476.84
2023-04-03T02:14:22.968Z,100475.97
2023-04-03T02:16:51.119Z,100476.84
2023-04-03T02:19:18.640Z,100465.50
2023-04-03T02:21:46.236Z,100463.72
2023-04-03T02:24:13.772Z,100464.59
2023-04-03T02:26:42.593Z,100468.97
2023-04-03T02:29:10.234Z,100473.34
2023-04-03T02:31:39.271Z,100475.09
2023-04-03T02:34:07.127Z,100476.84
2023-04-03T02:36:37.772Z,100484.72
2023-04-03T02:39:08.662Z,100475.94
2023-04-03T02:41:36.686Z,100484.69
2023-04-03T02:44:11.451Z,100467.22
2023-04-03T02:46:39.102Z,100466.34
2023-04-03T02:49:07.740Z,100476.84
2023-04-03T02:51:35.381Z,100484.72
2023-04-03T02:54:03.208Z,100476.84
2023-04-03T02:56:34.281Z,100489.06
2023-04-03T02:59:07.282Z,100475.97
2023-04-03T03:01:37.133Z,100485.53
2023-04-03T03:04:05.191Z,100483.69
2023-04-03T03:06:33.919Z,100480.28
2023-04-03T03:09:01.484Z,100482.06
2023-04-03T03:11:30.619Z,100475.94
2023-04-03T03:13:58.807Z,100484.69
2023-04-03T03:16:27.126Z,100489.06
2023-04-03T03:18:54.866Z,100492.56
2023-04-03T03:21:22.746Z,100483.81
2023-04-03T03:23:50.548Z,100492.53
2023-04-03T03:26:18.131Z,100487.28
2023-04-03T03:28:46.798Z,100482.00
2023-04-03T03:31:14.927Z,100491.63
2023-04-03T03:33:42.657Z,100494.28
2023-04-03T03:36:10.753Z,100490.81
2023-04-03T03:38:39.320Z,100499.53
2023-04-03T03:41:07.472Z,100498.69
2023-04-03T03:43:36.357Z,100491.69
2023-04-03T03:46:06.124Z,100498.66
2023-04-03T03:48:33.805Z,100489.94
2023-04-03T03:51:03.651Z,100492.50
2023-04-03T03:53:35.661Z,100489.88
2023-04-03T03:56:07.787Z,100505.59
2023-04-03T03:58:37.896Z,100489.00
2023-04-03T04:01:09.365Z,100490.63
2023-04-03T04:03:43.168Z,100494.13
2023-04-03T04:06:13.963Z,100501.91
2023-04-03T04:08:41.799Z,100499.28
2023-04-03T04:11:11.641Z,100504.59
2023-04-03T04:13:41.744Z,100508.09
2023-04-03T04:16:11.305Z,100502.91
2023-04-03T04:18:39.812Z,100495.03
2023-04-03T04:21:07.436Z,100502.09
2023-04-03T04:23:35.233Z,100518.69
2023-04-03T04:26:02.873Z,100500.41
2023-04-03T04:28:34.619Z,100505.63
2023-04-03T04:31:04.241Z,100512.63
2023-04-03T04:33:32.961Z,100509.94
2023-04-03T04:36:04.743Z,100509.94
2023-04-03T04:38:33.289Z,100515.22
2023-04-03T04:41:01.230Z,100508.25
2023-04-03T04:43:29.315Z,100517.00
2023-04-03T04:46:10.947Z,100516.19
2023-04-03T04:48:49.453Z,100532.75
2023-04-03T04:51:19.424Z,100539.75
2023-04-03T04:53:47.466Z,100522.28
2023-04-03T04:56:17.415Z,100523.13
2023-04-03T04:58:45.803Z,100529.28
2023-04-03T05:01:17.025Z,100529.28
2023-04-03T05:04:05.534Z,100529.31
2023-04-03T05:06:42.057Z,100526.66
2023-04-03T05:09:23.628Z,100536.28
2023-04-03T05:11:52.989Z,100542.38
2023-04-03T05:14:31.260Z,100537.16
2023-04-03T05:17:06.883Z,100534.53
2023-04-03T05:19:54.797Z,100538.03
2023-04-03T05:22:23.576Z,100542.38
2023-04-03T05:24:53.792Z,100557.25
2023-04-03T05:27:24.573Z,100554.63
2023-04-03T05:29:56.113Z,100548.47
2023-04-03T05:32:26.240Z,100564.22
2023-04-03T05:35:02.734Z,100555.41
2023-04-03T05:37:41.560Z,100561.53
2023-04-03T05:40:10.333Z,100564.09
2023-04-03T05:42:41.617Z,100568.47
2023-04-03T05:45:09.549Z,100570.19
2023-04-03T05:47:37.495Z,100559.59
2023-04-03T05:50:07.827Z,100567.41
2023-04-03T05:53:20.498Z,100573.56
2023-04-03T06:02:07.973Z,100565.31
2023-04-03T06:08:21.105Z,100572.19
2023-04-03T06:10:48.899Z,100575.59
2023-04-03T06:13:18.539Z,100586.88
2023-04-03T06:15:46.089Z,100578.84
2023-04-03T06:18:13.487Z,100578.84
2023-04-03T06:20:41.734Z,100583.16
2023-04-03T06:23:09.413Z,100584.91
2023-04-03T06:25:36.880Z,100586.50
2023-04-03T06:28:10.374Z,100583.75
2023-04-03T06:30:43.068Z,100588.91
2023-04-03T06:33:10.765Z,100581.84
2023-04-03T07:21:55.367Z,100618.88
2023-04-03T07:24:58.225Z,100627.53
2023-04-03T07:28:39.927Z,100625.00
2023-04-03T07:31:13.341Z,100619.69
2023-04-03T07:34:36.935Z,100621.56
2023-04-03T07:38:13.020Z,100633.22
2023-04-03T12:35:36.634Z,100512.06
2023-04-03T12:38:36.519Z,100509.78
2023-04-03T12:42:18.933Z,100520.47
2023-04-03T16:43:39.326Z,100458.75
2023-04-03T16:46:10.085Z,100458.13
2023-04-03T16:51:31.303Z,100467.75
2023-04-03T16:54:08.157Z,100457.69
2023-04-03T16:56:35.465Z,100463.84
2023-04-03T16:59:02.848Z,100464.00
2023-04-03T17:01:30.598Z,100469.94
2023-04-03T17:03:57.979Z,100480.63
2023-04-03T17:06:25.500Z,100478.00
2023-04-03T17:08:55.462Z,100485.25
2023-04-03T17:11:29.021Z,100491.44
2023-04-03T17:13:56.372Z,100495.41
2023-04-03T17:16:24.434Z,100485.16
2023-04-03T17:18:52.726Z,100492.81
2023-04-03T17:25:44.473Z,100483.00
2023-04-03T17:28:11.869Z,100488.28
2023-04-03T17:30:39.187Z,100493.66
2023-04-03T17:33:06.744Z,100487.75
2023-04-03T17:35:34.273Z,100488.44
2023-04-03T17:47:04.767Z,100512.66
2023-04-03T17:49:57.249Z,100520.47
2023-04-03T17:52:31.954Z,100522.19
2023-04-03T17:55:05.035Z,100519.56
2023-04-03T17:57:32.416Z,100519.84
2023-04-03T18:12:31.620Z,100549.13
2023-04-03T18:15:00.380Z,100549.78
2023-04-03T18:17:35.843Z,100557.13
2023-04-03T18:20:06.457Z,100558.97
2023-04-03T18:27:03.840Z,100570.31
2023-04-03T18:29:32.881Z,100581.00
2023-04-03T18:36:18.965Z,100589.28
2023-04-03T18:47:43.225Z,100615.16
2023-04-03T18:50:10.861Z,100624.94
2023-04-03T18:52:38.279Z,100615.22
2023-04-03T18:59:27.592Z,100630.09
2023-04-03T19:01:55.867Z,100642.41
2023-04-03T19:04:23.442Z,100648.75
2023-04-03T19:07:41.955Z,100666.63
2023-04-03T19:14:27.424Z,100674.81
2023-04-03T19:21:15.900Z,100674.06
2023-04-03T19:23:45.027Z,100693.34
2023-04-03T19:26:14.917Z,100694.38
2023-04-03T19:28:42.642Z,100708.44
2023-04-03T19:31:14.092Z,100699.75
2023-04-03T19:33:42.255Z,100696.16
2023-04-03T19:36:12.424Z,100692.63
2023-04-03T19:47:31.420Z,100699.50
2023-04-03T19:49:59.642Z,100703.94
2023-04-03T19:52:27.112Z,100704.63
2023-04-03T19:59:19.547Z,100714.16
2023-04-03T20:02:01.657Z,100713.31
2023-04-03T20:08:55.927Z,100714.22
2023-04-03T20:16:04.354Z,100725.69
2023-04-03T20:19:03.934Z,100724.84
2023-04-03T20:26:06.508Z,100729.28
2023-04-03T20:28:47.871Z,100724.09
2023-04-03T20:31:20.740Z,100724.13
2023-04-03T20:33:53.460Z,100728.50
2023-04-03T20:36:31.335Z,100728.53
2023-04-03T20:47:45.683Z,100738.81
2023-04-03T20:55:22.366Z,100738.03
2023-04-03T20:58:13.753Z,100738.91
2023-04-03T21:09:27.341Z,100752.88
2023-04-03T21:25:09.355Z,100737.06
2023-04-03T21:32:54.669Z,100738.09
2023-04-03T21:40:08.716Z,100739.78
2023-04-03T21:42:41.734Z,100749.31
2023-04-03T21:49:33.079Z,100742.47
2023-04-03T21:52:03.063Z,100749.53
2023-04-03T21:54:33.724Z,100751.31
2023-04-03T22:01:29.635Z,100755.69
2023-04-03T22:03:59.622Z,100761.81
2023-04-03T22:06:26.980Z,100766.22
2023-04-03T22:08:57.144Z,100760.09
2023-04-03T22:11:32.980Z,100771.53
2023-04-03T22:18:32.660Z,100766.31
2023-04-03T22:21:00.129Z,100771.53
2023-04-03T22:23:29.825Z,100767.22
2023-04-03T22:26:21.637Z,100767.19
2023-04-03T22:28:48.860Z,100766.34
2023-04-03T22:35:48.268Z,100759.31
2023-04-03T22:38:16.042Z,100763.69
2023-04-03T22:44:27.564Z,100764.59
2023-04-03T22:51:21.295Z,100768.94
2023-04-03T22:58:15.844Z,100775.06
2023-04-03T23:00:43.470Z,100770.69
2023-04-03T23:03:13.053Z,100770.66
2023-04-03T23:05:40.740Z,100768.94
2023-04-03T23:08:08.006Z,100763.66
2023-04-03T23:10:38.073Z,100757.56
2023-04-03T23:13:05.699Z,100763.66
2023-04-03T23:24:39.293Z,100767.13
2023-04-03T23:31:26.104Z,100768.81
2023-04-03T23:33:56.746Z,100760.03
2023-04-03T23:36:26.623Z,100764.44
2023-04-03T23:42:09.222Z,100763.50
2023-04-03T23:44:43.744Z,100760.06
2023-04-03T23:47:16.687Z,100759.25
2023-04-03T23:54:05.842Z,100760.06
2023-04-03T23:56:36.061Z,100764.34
2023-04-03T23:59:16.518Z,100762.66
